Aeroporto :
LOGIN :

Iscrizione | Disclaimer

   EN    FR    IT 

 










Sommario :    VFR   VFR Marginale   IFR   IFR Intensivo   IFR Molto Intensivo
Visibilità : 
Base nubi : 
>= 8 km
>= 3000ft
5 / 8 km
1000 / 3000 ft
1500m / 5 km
500 / 1000 ft
800 / 1500m
200 / 500 ft
< 800m
< 200 ft
Simboli :   Temporali  Nebbia  Neve Forte  Precipitazioni Forti  Vento > 20 kt
SIGMETs :   Varie  Temporali  Ghiacco  Turbolenza  Onda orograficha  Ceneri Vulcaniche






- Altitudine del aeroporto : 267 ft


EGDR - Culdrose Navy

ULTIMO METAR :
  • 221223Z 06005KT 6000 -RA FEW014 SCT025 BKN035 07/06 Q0988 WHT NOSIG RMK BLU BLU

METARs OBSOLETI :
  • 221150Z 04005KT 9999 -RA FEW014 SCT018 OVC040 07/06 Q0988 TEMPO SCT012 4000 RA RMK WHT TEMPO GRN
  • 221122Z 05002KT 8000 -RA FEW014 SCT018 08/06 Q0988 TEMPO SCT012 4000 RA RMK WHT TEMPO GRN
  • 221050Z 16004KT 6000 -RA FEW014 SCT018 07/05 Q0988 TEMPO SCT014 4000 RA RMK WHT TEMPO GRN
  • 221026Z 18014G26KT 6000 RA SCT014 SCT018 08/05 Q0989 NOSIG RMK GRN GRN
  • 221015Z 17010KT 6000 -RA FEW014 SCT018 09/04 Q0988 TEMPO SCT014 RMK WHT TEMPO GRN
  • 220950Z 15010KT 9999 VCSH FEW014 BKN030 BKN180 10/07 Q0988 TEMPO SCT022 RMK BLU TEMPO WHT
  • 220920Z 16009KT 9999 FEW014 BKN030 BKN180 09/07 Q0989 TEMPO SCT022 RMK BLU TEMPO WHT

TAF TAF EGDR
Valido dal 22 a 12 ore il 22 a 21 ore UTC


221133Z 2212/2221 VRB05KT 9000 -RA FEW014 SCT020
TEMPO 2212/2221 5000 RA SHRA SCT012 BKN018CB
BECMG 2212/2214 13010KT
PROB40
TEMPO 2212/2221 4000 RA SCT005 BKN008
PROB30
TEMPO 2215/2221 3500 +RA SCT004 BKN006



MetMap, La meteo Aeronautica in un colpo d'occhio ! - Copyright ORBIFLY Dicembre 2007 - Disclaimer

ORBIFLY MET'MAP TEAM :

Programmazione e sviluppo : Alexandra Zaïnal
Concezione e sviluppo : Baudouin d'Aumeries
Co-Programmazione e sviluppo : Marc-Olivier Méhu
Supporto tecnico e logistico : Manuel Goepfert
Aiuto per la traduzione : Arnaldo La Scala

Contatto : metmap@orbifly.com




FONTI E CREDITI :

   NOAA